METAR stanice u blizini

 

LYBE - Beograd / Surčin, Srbija
Ažurirano: 23/09/2020 13:00
Vedro
Vedro
 Pravac vetra JJZ
Vetar: JJZ 13 km/h
Temperatura: 28°C
Heat Index: 27°C
Tačka rose: 13°C
Vlažnost: 40%
Pritisak: 1011 hPa
Pregled: Vedro
Vidljivost: greater than 10 km
2020/09/23 11:00 LYBE 231100Z 21007KT 140V270 CAVOK 28/13 Q1011 NOSIG
LYBT - Beograd / Batajnica, Srbija
Ažurirano: 23/09/2020 13:00
Vedro
Vedro
 Pravac vetra J
Vetar: J 11 km/h
Temperatura: 27°C
Tačka rose: 12°C
Vlažnost: 39%
Pritisak: 1010 hPa
Pregled: Vedro
Vidljivost: greater than 10 km
2020/09/23 11:00 LYBT 231100Z 19006KT 160V240 CAVOK 27/12 Q1010 NOSIG
LYVR - Vršac, Srbija
Ažurirano: 23/09/2020 13:00
Vedro
Vedro
 Pravac vetra JJI
Vetar: JJI 31 km/h
Temperatura: 27°C
Tačka rose: 11°C
Vlažnost: 37%
Pritisak: 1011 hPa
Pregled: Vedro
Vidljivost: greater than 10 km
2020/09/23 11:00 LYVR 231100Z 16017KT 120V200 CAVOK 27/11 Q1011 NOSIG
 
LYKV - Lađevci, Srbija
Ažurirano: 23/09/2020 13:00
Partly Cloudy
Partly Cloudy
 Pravac vetra JI
Vetar: JI 7 km/h
Temperatura: 25°C
Tačka rose: 15°C
Vlažnost: 54%
Pritisak: 1012 hPa
Oblaci: Partly Cloudy
Vidljivost: 10 km
Cloud details: Partly Cloudy 1097 m
2020/09/23 11:00 LYKV 231100Z 14004KT 110V260 9999 SCT036 25/15 Q1012 NOSIG
LYNI - Niš, Srbija
Ažurirano: 23/09/2020 13:00
Few Clouds
Few Clouds
 Pravac vetra J
Vetar: J 17 km/h
Temperatura: 25°C
Tačka rose: 13°C
Vlažnost: 47%
Pritisak: 1014 hPa
Oblaci: Few Clouds
Vidljivost: 10 km
Cloud details: Few Clouds 1219 m
2020/09/23 11:00 LYNI 231100Z 17009KT 100V230 9999 FEW040 25/13 Q1014 NOSIG
BKPR - Priština, Srbija
Ažurirano: 23/09/2020 13:00
Partly Cloudy
Partly Cloudy
 Pravac vetra J
Vetar: J 9 km/h
Temperatura: 22°C
Tačka rose: 13°C
Vlažnost: 57%
Pritisak: 1016 hPa
Oblaci: Partly Cloudy
Vidljivost: 10 km
Cloud details: Few Clouds 914 m
Partly Cloudy 3048 m
2020/09/23 11:00 BKPR 231100Z 17005KT 110V210 9999 FEW030 SCT100 22/13 Q1016 NOSIG
 
LHPP - Pecs / Pogany, Hungary
Ažurirano: 23/09/2020 12:45
Few Clouds
Few Clouds
 Pravac vetra ZJZ
Vetar: ZJZ 11 km/h
Temperatura: 25°C
Tačka rose: 14°C
Vlažnost: 51%
Pritisak: 1010 hPa
Oblaci: Few Clouds
Vidljivost: 10 km
Cloud details: Few Clouds 1402 m
2020/09/23 10:45 LHPP 231045Z 25006KT 9999 FEW046 25/14 Q1010
LHUD - Szeged, Hungary
Ažurirano: 04/07/2019 01:45
NOT Current
Vedro
Vedro
 Pravac vetra S
Vetar: S 7 km/h
Temperatura: 18°C
Tačka rose: 13°C
Vlažnost: 73%
Pritisak: 1019 hPa
Pregled: Vedro
Vidljivost: greater than 10 km
2019/07/03 23:45 LHUD 032345Z 35004KT CAVOK 18/13 Q1019
LRTR - Timisoara, Romania
Ažurirano: 23/09/2020 13:00
Few Clouds
Few Clouds
 Pravac vetra J
Vetar: J 30 km/h
Temperatura: 25°C
Tačka rose: 10°C
Vlažnost: 39%
Pritisak: 1011 hPa
Oblaci: Few Clouds
Vidljivost: 10 km
Cloud details: Few Clouds 1402 m
2020/09/23 11:00 LRTR 231100Z 18016KT 9999 FEW046 25/10 Q1011
 
LRCV - Craiova, Romania
Ažurirano: 23/09/2020 12:30
Vedro
Vedro
 Pravac vetra I
Vetar: I 13 km/h
Temperatura: 24°C
Tačka rose: 10°C
Vlažnost: 41%
Pritisak: 1014 hPa
Pregled: Vedro
Vidljivost: greater than 10 km
2020/09/23 10:30 LRCV 231030Z 09007KT 060V140 CAVOK 24/10 Q1014
LBSF - Sofia, Bulgaria
Ažurirano: 23/09/2020 13:00
Mostly Cloudy
Mostly Cloudy
 Pravac vetra I
Vetar: I 7 km/h
Temperatura: 23°C
Tačka rose: 11°C
Vlažnost: 47%
Pritisak: 1016 hPa
Oblaci: Mostly Cloudy
Vidljivost: 10 km
Cloud details: Mostly Cloudy 2713 m
2020/09/23 11:00 LBSF 231100Z 08004KT 010V130 9999 BKN089 23/11 Q1016 NOSIG
LWSK - Skoplje, Makedonija
Ažurirano: 23/09/2020 13:00
Few Clouds
Few Clouds
 Pravac vetra JJI
Vetar: JJI 9 km/h
Temperatura: 22°C
Tačka rose: 16°C
Vlažnost: 69%
Pritisak: 1016 hPa
Oblaci: Few Clouds
Vidljivost: 10 km
Cloud details: Few Clouds 914 m
2020/09/23 11:00 LWSK 231100Z 15005KT 9999 FEW030 22/16 Q1016 NOSIG
 
LYPG - Podgorica, Crna Gora
Ažurirano: 23/09/2020 13:00
Light thunderstorm, Padavine, Delimično oblačno
Light thunderstorm, Padavine, Delimično oblačno
 Pravac vetra ZJZ
Vetar: ZJZ 9 km/h
Temperatura: 20°C
Tačka rose: 18°C
Vlažnost: 88%
Pritisak: 1015 hPa
Pregled: Light thunderstorm, Padavine
Oblaci: Partly Cloudy
Vidljivost: 8 km
Cloud details: Few Clouds 610 m
Partly Cloudy 792 m
Partly Cloudy 1219 m
2020/09/23 11:00 LYPG 231100Z 25005KT 210V300 8000 -TSRA FEW020 SCT026CB SCT040 20/18 Q1015 RERA NOSIG
LQSA - Sarajevo, Bosna i Hercegovina
Ažurirano: 23/09/2020 13:00
Few Clouds
Few Clouds
 Pravac vetra varies
Vetar: varies 4 km/h
Temperatura: 21°C
Tačka rose: 16°C
Vlažnost: 73%
Pritisak: 1013 hPa
Oblaci: Few Clouds
Vidljivost: 10 km
Cloud details: Few Clouds 1524 m
2020/09/23 11:00 LQSA 231100Z VRB02KT 9999 FEW050 21/16 Q1013 NOSIG
LDOS - Osijek, Hrvatksa
Ažurirano: 23/09/2020 13:00
Vedro
Vedro
 Pravac vetra JJZ
Vetar: JJZ 13 km/h
Temperatura: 27°C
Heat Index: 27°C
Tačka rose: 14°C
Vlažnost: 45%
Pritisak: 1010 hPa
Pregled: Vedro
Vidljivost: greater than 10 km
2020/09/23 11:00 LDOS 231100Z 20007KT 140V260 CAVOK 27/14 Q1010